createdAt,value
2017-09-07T00:01:38.939Z,80.30
2017-09-07T00:04:06.563Z,80.40
2017-09-07T00:06:34.207Z,80.80
2017-09-07T00:09:01.817Z,81.10
2017-09-07T00:11:29.397Z,81.40
2017-09-07T00:13:57.428Z,81.80
2017-09-07T00:16:25.577Z,82.30
2017-09-07T00:18:53.210Z,82.50
2017-09-07T00:21:20.809Z,83.40
2017-09-07T00:23:48.461Z,82.90
2017-09-07T00:26:16.060Z,83.20
2017-09-07T00:28:43.674Z,83.50
2017-09-07T00:31:12.070Z,84.10
2017-09-07T00:33:39.693Z,84.10
2017-09-07T00:36:07.316Z,84.30
2017-09-07T00:38:35.674Z,84.70
2017-09-07T00:41:03.297Z,84.60
2017-09-07T00:43:30.900Z,84.70
2017-09-07T00:45:59.304Z,84.80
2017-09-07T00:48:26.893Z,84.80
2017-09-07T00:50:54.778Z,85.10
2017-09-07T00:53:22.402Z,85.20
2017-09-07T00:55:50.020Z,84.70
2017-09-07T00:58:17.638Z,83.60
2017-09-07T01:00:45.289Z,82.90
2017-09-07T01:03:12.920Z,82.60
2017-09-07T01:05:40.561Z,81.40
2017-09-07T01:08:08.174Z,80.50
2017-09-07T01:10:35.803Z,80.40
2017-09-07T01:13:03.461Z,80.00
2017-09-07T01:15:31.029Z,80.40
2017-09-07T01:17:58.721Z,80.70
2017-09-07T01:20:26.658Z,81.10
2017-09-07T01:22:54.512Z,81.40
2017-09-07T01:25:22.093Z,81.90
2017-09-07T01:27:49.757Z,82.20
2017-09-07T01:30:17.336Z,82.80
2017-09-07T01:32:44.898Z,83.40
2017-09-07T01:35:12.487Z,83.90
2017-09-07T01:37:40.057Z,84.20
2017-09-07T01:40:07.632Z,84.30
2017-09-07T01:42:35.203Z,84.80
2017-09-07T01:45:02.794Z,84.80
2017-09-07T01:47:30.370Z,85.30
2017-09-07T01:49:58.223Z,85.40
2017-09-07T01:52:27.487Z,84.90
2017-09-07T01:54:55.067Z,84.70
2017-09-07T01:57:22.652Z,84.30
2017-09-07T01:59:50.235Z,83.60
2017-09-07T02:02:17.823Z,83.40
2017-09-07T02:04:45.394Z,82.80
2017-09-07T02:07:12.994Z,82.50
2017-09-07T02:09:40.576Z,82.00
2017-09-07T02:12:09.182Z,81.80
2017-09-07T02:14:36.748Z,81.90
2017-09-07T02:17:04.645Z,82.00
2017-09-07T02:19:32.223Z,82.00
2017-09-07T02:21:59.806Z,82.60
2017-09-07T02:24:28.150Z,82.90
2017-09-07T02:26:55.721Z,82.90
2017-09-07T02:29:23.286Z,83.20
2017-09-07T02:31:50.858Z,83.30
2017-09-07T02:34:19.204Z,83.00
2017-09-07T02:36:46.802Z,83.00
2017-09-07T02:39:14.798Z,82.90
2017-09-07T02:41:42.364Z,83.50
2017-09-07T02:44:09.954Z,82.90
2017-09-07T02:46:37.543Z,82.30
2017-09-07T02:49:05.128Z,82.00
2017-09-07T02:51:32.707Z,81.60
2017-09-07T02:54:00.293Z,81.40
2017-09-07T02:56:28.510Z,81.60
2017-09-07T02:58:56.083Z,81.60
2017-09-07T03:01:23.659Z,82.10
2017-09-07T03:03:51.219Z,81.80
2017-09-07T03:06:19.103Z,81.60
2017-09-07T03:08:46.673Z,82.20
2017-09-07T03:11:14.243Z,81.40
2017-09-07T03:13:41.826Z,81.60
2017-09-07T03:16:09.395Z,81.30
2017-09-07T03:18:36.975Z,81.50
2017-09-07T03:21:04.559Z,81.70
2017-09-07T03:23:32.144Z,81.80
2017-09-07T03:25:59.730Z,83.20
2017-09-07T03:28:27.573Z,83.00
2017-09-07T03:30:55.141Z,83.30
2017-09-07T03:33:22.728Z,83.40
2017-09-07T03:35:50.314Z,83.20
2017-09-07T03:38:17.890Z,83.60
2017-09-07T03:40:45.468Z,83.90
2017-09-07T03:43:13.793Z,84.60
2017-09-07T03:45:41.363Z,84.60
2017-09-07T03:48:08.938Z,84.60
2017-09-07T03:50:36.521Z,85.00
2017-09-07T03:53:04.093Z,85.20
2017-09-07T03:55:31.999Z,85.40
2017-09-07T03:57:59.573Z,85.80
2017-09-07T04:00:27.142Z,85.70
2017-09-07T04:02:54.759Z,86.00
2017-09-07T04:05:22.313Z,85.00
2017-09-07T04:07:49.889Z,85.00
2017-09-07T04:10:17.456Z,85.00
2017-09-07T04:12:45.040Z,84.90
2017-09-07T04:15:12.605Z,84.00
2017-09-07T04:17:40.652Z,84.20
2017-09-07T04:20:08.239Z,83.80
2017-09-07T04:22:35.810Z,83.10
2017-09-07T04:25:03.386Z,82.60
2017-09-07T04:27:31.900Z,82.70
2017-09-07T04:29:59.488Z,82.30
2017-09-07T04:32:27.068Z,82.30
2017-09-07T04:34:54.660Z,82.40
2017-09-07T04:37:22.233Z,82.80
2017-09-07T04:39:50.104Z,82.70
2017-09-07T04:42:17.667Z,83.00
2017-09-07T04:44:45.224Z,82.80
2017-09-07T04:47:12.796Z,83.20
2017-09-07T04:49:40.367Z,83.60
2017-09-07T04:52:08.201Z,84.10
2017-09-07T04:54:35.759Z,84.00
2017-09-07T04:57:03.316Z,84.00
2017-09-07T04:59:31.160Z,83.60
2017-09-07T05:01:58.734Z,83.50
2017-09-07T05:04:26.625Z,83.60
2017-09-07T05:06:54.205Z,84.10
2017-09-07T05:09:21.775Z,84.90
2017-09-07T05:11:50.137Z,84.20
2017-09-07T05:14:17.718Z,84.20
2017-09-07T05:16:46.066Z,84.30
2017-09-07T05:19:13.655Z,84.30
2017-09-07T05:21:41.667Z,84.20
2017-09-07T05:24:09.238Z,84.70
2017-09-07T05:26:37.671Z,85.30
2017-09-07T05:29:06.250Z,84.90
2017-09-07T05:31:34.576Z,85.40
2017-09-07T05:34:02.163Z,85.30
2017-09-07T05:36:29.734Z,85.30
2017-09-07T05:38:57.307Z,85.50
2017-09-07T05:41:24.877Z,85.10
2017-09-07T05:43:52.788Z,85.70
2017-09-07T05:46:20.377Z,86.50
2017-09-07T05:48:47.935Z,86.80
2017-09-07T05:51:15.532Z,87.50
2017-09-07T05:53:43.094Z,89.10
2017-09-07T05:56:10.674Z,90.10
2017-09-07T05:58:38.258Z,90.70
2017-09-07T06:01:05.862Z,91.40
2017-09-07T06:03:33.417Z,91.70
2017-09-07T06:06:01.325Z,92.20
2017-09-07T06:08:28.914Z,92.70
2017-09-07T06:10:57.241Z,93.30
2017-09-07T06:13:24.854Z,93.20
2017-09-07T06:15:53.180Z,93.50
2017-09-07T06:18:20.786Z,93.50
2017-09-07T06:20:48.357Z,93.90
2017-09-07T06:23:16.773Z,94.00
2017-09-07T06:25:44.342Z,94.00
2017-09-07T06:28:12.213Z,93.80
2017-09-07T06:30:39.768Z,93.70
2017-09-07T06:33:07.317Z,94.30
2017-09-07T06:35:34.879Z,93.10
2017-09-07T06:38:02.438Z,93.50
2017-09-07T06:40:30.012Z,93.60
2017-09-07T06:42:57.573Z,94.20
2017-09-07T06:45:25.142Z,94.20
2017-09-07T06:47:52.722Z,93.50
2017-09-07T06:50:20.555Z,94.10
2017-09-07T06:52:48.159Z,94.30
2017-09-07T06:55:15.729Z,94.10
2017-09-07T06:57:43.302Z,94.10
2017-09-07T07:00:10.895Z,94.00
2017-09-07T07:02:38.485Z,93.80
2017-09-07T07:05:06.826Z,93.60
2017-09-07T07:07:34.419Z,93.50
2017-09-07T07:10:01.976Z,94.10
2017-09-07T07:12:29.553Z,94.10
2017-09-07T07:14:57.148Z,93.30
2017-09-07T07:17:25.146Z,93.60
2017-09-07T07:19:52.710Z,93.30
2017-09-07T07:22:20.313Z,93.40
2017-09-07T07:24:47.894Z,93.20
2017-09-07T07:27:15.463Z,93.20
2017-09-07T07:29:43.812Z,91.80
2017-09-07T07:32:11.376Z,91.80
2017-09-07T07:34:38.968Z,92.30
2017-09-07T07:37:07.311Z,91.70
2017-09-07T07:39:34.933Z,91.70
2017-09-07T07:42:02.492Z,92.10
2017-09-07T07:44:30.370Z,91.10
2017-09-07T07:46:57.948Z,90.90
2017-09-07T07:49:25.518Z,91.40
2017-09-07T07:51:53.111Z,91.10
2017-09-07T07:54:20.692Z,90.30
2017-09-07T07:56:49.034Z,91.10
2017-09-07T07:59:17.355Z,91.00
2017-09-07T08:01:44.937Z,91.00
2017-09-07T08:04:12.512Z,90.40
2017-09-07T08:06:40.117Z,90.10
2017-09-07T08:09:07.676Z,90.10
2017-09-07T08:11:35.574Z,90.40
2017-09-07T08:14:03.140Z,90.10
2017-09-07T08:16:30.708Z,88.70
2017-09-07T08:18:58.283Z,87.40
2017-09-07T08:21:26.612Z,87.80
2017-09-07T08:23:54.181Z,87.60
2017-09-07T08:26:21.825Z,86.90
2017-09-07T08:28:49.404Z,86.20
2017-09-07T08:31:16.957Z,86.60
2017-09-07T08:33:44.811Z,83.60
2017-09-07T08:36:12.393Z,86.50
2017-09-07T08:38:39.954Z,87.20
2017-09-07T08:41:07.552Z,85.70
2017-09-07T08:43:35.300Z,84.20
2017-09-07T08:46:02.867Z,84.50
2017-09-07T08:48:31.189Z,84.30
2017-09-07T08:50:58.755Z,84.20
2017-09-07T08:53:26.313Z,84.20
2017-09-07T08:55:54.184Z,82.00
2017-09-07T08:58:21.746Z,80.60
2017-09-07T09:00:49.330Z,81.90
2017-09-07T09:03:16.902Z,82.10
2017-09-07T09:05:45.245Z,80.50
2017-09-07T09:08:12.811Z,80.40
2017-09-07T09:10:40.375Z,81.20
2017-09-07T09:13:08.225Z,79.60
2017-09-07T09:15:36.260Z,76.80
2017-09-07T09:18:03.838Z,76.00
2017-09-07T09:20:31.711Z,75.10
2017-09-07T09:22:59.289Z,74.90
2017-09-07T09:25:26.871Z,73.80
2017-09-07T09:27:55.399Z,74.30
2017-09-07T09:30:23.254Z,72.70
2017-09-07T09:32:50.826Z,73.50
2017-09-07T09:35:18.483Z,73.30
2017-09-07T09:37:46.061Z,73.70
2017-09-07T09:40:13.618Z,72.90
2017-09-07T09:42:41.187Z,71.40
2017-09-07T09:45:08.764Z,70.50
2017-09-07T09:47:36.646Z,67.10
2017-09-07T09:50:05.002Z,65.90
2017-09-07T09:52:32.579Z,65.90
2017-09-07T09:55:00.151Z,67.00
2017-09-07T09:57:29.382Z,64.80
2017-09-07T09:59:56.948Z,64.90
2017-09-07T10:02:24.507Z,63.90
2017-09-07T10:04:52.107Z,64.20
2017-09-07T10:07:20.585Z,61.10
2017-09-07T10:09:48.180Z,61.10
2017-09-07T10:12:15.845Z,62.10
2017-09-07T10:14:43.426Z,61.20
2017-09-07T10:17:11.020Z,60.40
2017-09-07T10:19:39.069Z,59.70
2017-09-07T10:22:06.634Z,59.10
2017-09-07T10:24:34.962Z,57.80
2017-09-07T10:27:02.549Z,57.80
2017-09-07T10:29:30.121Z,57.30
2017-09-07T10:31:57.709Z,58.60
2017-09-07T10:34:25.275Z,58.30
2017-09-07T10:36:52.858Z,57.70
2017-09-07T10:39:20.442Z,58.30
2017-09-07T10:41:48.312Z,56.90
2017-09-07T10:44:15.878Z,56.90
2017-09-07T10:46:43.434Z,55.00
2017-09-07T10:49:11.870Z,55.60
2017-09-07T10:51:39.435Z,55.50
2017-09-07T10:54:07.948Z,56.20
2017-09-07T10:56:35.522Z,54.40
2017-09-07T10:59:03.103Z,54.30
2017-09-07T11:01:30.667Z,55.20
2017-09-07T11:03:59.042Z,54.80
2017-09-07T11:06:26.651Z,54.80
2017-09-07T11:08:54.552Z,54.90
2017-09-07T11:11:22.134Z,55.00
2017-09-07T11:13:49.747Z,55.80
2017-09-07T11:16:17.318Z,55.00
2017-09-07T11:18:44.883Z,55.80
2017-09-07T11:21:12.471Z,55.20
2017-09-07T11:23:40.048Z,54.40
2017-09-07T11:26:07.620Z,54.90
2017-09-07T11:28:35.178Z,54.30
2017-09-07T11:31:02.746Z,53.00
2017-09-07T11:33:30.316Z,53.10
2017-09-07T11:35:59.008Z,53.10
2017-09-07T11:38:26.651Z,53.10
2017-09-07T11:40:54.201Z,54.20
2017-09-07T11:43:21.968Z,54.30
2017-09-07T11:45:49.590Z,54.20
2017-09-07T11:48:26.858Z,54.70
2017-09-07T11:50:54.564Z,54.60
2017-09-07T11:53:22.373Z,54.30
2017-09-07T11:55:49.930Z,55.00
2017-09-07T11:58:17.548Z,55.20
2017-09-07T12:00:45.124Z,55.80
2017-09-07T12:03:12.697Z,54.90
2017-09-07T12:05:40.276Z,54.60
2017-09-07T12:08:07.840Z,53.60
2017-09-07T12:10:35.453Z,52.90
2017-09-07T12:13:03.014Z,53.00
2017-09-07T12:15:30.589Z,53.40
2017-09-07T12:17:58.165Z,52.80
2017-09-07T12:20:25.770Z,53.40
2017-09-07T12:22:53.334Z,52.40
2017-09-07T12:25:21.368Z,53.20
2017-09-07T12:27:49.001Z,53.10
2017-09-07T12:30:16.571Z,54.50
2017-09-07T12:32:44.159Z,56.70
2017-09-07T12:35:11.739Z,58.30
2017-09-07T12:37:39.336Z,62.20
2017-09-07T12:40:06.910Z,64.90
2017-09-07T12:42:34.486Z,67.50
2017-09-07T12:45:02.277Z,68.40
2017-09-07T12:47:30.182Z,68.80
2017-09-07T12:49:57.792Z,69.90
2017-09-07T12:52:25.369Z,67.40
2017-09-07T12:54:52.952Z,66.60
2017-09-07T12:57:20.560Z,65.30
2017-09-07T12:59:48.924Z,62.90
2017-09-07T13:02:16.504Z,62.80
2017-09-07T13:04:44.857Z,61.20
2017-09-07T13:07:12.430Z,61.10
2017-09-07T13:09:40.552Z,60.20
2017-09-07T13:12:08.197Z,59.80
2017-09-07T13:14:35.778Z,59.60
2017-09-07T13:17:03.355Z,57.90
2017-09-07T13:19:30.940Z,57.50
2017-09-07T13:21:58.770Z,55.20
2017-09-07T13:24:29.324Z,55.40
2017-09-07T13:26:56.906Z,55.60
2017-09-07T13:29:24.598Z,53.50
2017-09-07T13:31:52.494Z,53.50
2017-09-07T13:34:20.086Z,52.90
2017-09-07T13:36:48.420Z,54.00
2017-09-07T13:39:16.020Z,53.90
2017-09-07T13:41:43.662Z,56.20
2017-09-07T13:44:11.251Z,57.80
2017-09-07T13:46:39.588Z,59.70
2017-09-07T13:49:07.162Z,59.70
2017-09-07T13:51:34.725Z,60.50
2017-09-07T13:54:02.765Z,61.60
2017-09-07T13:56:30.320Z,61.60
2017-09-07T13:58:57.883Z,62.50
2017-09-07T14:01:25.555Z,61.20
2017-09-07T14:03:53.344Z,61.60
2017-09-07T14:06:21.214Z,60.50
2017-09-07T14:08:49.856Z,54.70
2017-09-07T14:11:17.449Z,54.60
2017-09-07T14:13:45.053Z,49.80
2017-09-07T14:16:12.729Z,43.90
2017-09-07T14:18:40.344Z,41.20
2017-09-07T14:21:08.223Z,37.90
2017-09-07T14:23:36.017Z,36.00
2017-09-07T14:26:03.583Z,36.30
2017-09-07T14:28:31.198Z,35.20
2017-09-07T14:30:58.833Z,34.80
2017-09-07T14:33:26.408Z,33.00
2017-09-07T14:35:53.970Z,31.60
2017-09-07T14:38:21.543Z,32.00
2017-09-07T14:40:49.151Z,30.30
2017-09-07T14:43:16.740Z,32.40
2017-09-07T14:45:44.297Z,31.40
2017-09-07T14:48:11.890Z,30.90
2017-09-07T14:50:39.538Z,31.80
2017-09-07T14:53:07.471Z,31.70
2017-09-07T14:55:35.176Z,32.70
2017-09-07T14:58:02.878Z,32.10
2017-09-07T15:00:30.667Z,31.20
2017-09-07T15:02:58.240Z,31.80
2017-09-07T15:05:25.898Z,30.50
2017-09-07T15:07:53.475Z,31.10
2017-09-07T15:10:21.070Z,29.90
2017-09-07T15:12:48.793Z,28.70
2017-09-07T15:15:16.846Z,29.80
2017-09-07T15:17:44.482Z,28.50
2017-09-07T15:20:12.144Z,31.00
2017-09-07T15:22:39.805Z,33.60
2017-09-07T15:25:07.388Z,32.20
2017-09-07T15:27:35.730Z,31.00
2017-09-07T15:30:03.340Z,31.00
2017-09-07T15:32:30.914Z,31.80
2017-09-07T15:34:58.665Z,32.30
2017-09-07T15:37:26.607Z,35.80
2017-09-07T15:39:54.180Z,38.40
2017-09-07T15:42:21.776Z,36.90
2017-09-07T15:44:49.364Z,35.00
2017-09-07T15:47:16.949Z,32.10
2017-09-07T15:49:44.519Z,32.70
2017-09-07T15:52:12.210Z,32.10
2017-09-07T15:54:39.796Z,31.90
2017-09-07T15:57:07.385Z,31.80
2017-09-07T15:59:35.236Z,30.40
2017-09-07T16:02:02.838Z,30.30
2017-09-07T16:04:30.414Z,30.60
2017-09-07T16:06:58.002Z,30.10
2017-09-07T16:09:25.675Z,29.00
2017-09-07T16:11:53.648Z,30.80
2017-09-07T16:14:21.298Z,31.00
2017-09-07T16:16:49.079Z,32.30
2017-09-07T16:19:16.795Z,36.00
2017-09-07T16:21:44.529Z,38.90
2017-09-07T16:24:12.163Z,43.40
2017-09-07T16:26:40.663Z,46.50
2017-09-07T16:29:08.325Z,46.50
2017-09-07T16:31:36.057Z,47.90
2017-09-07T16:34:04.521Z,50.40
2017-09-07T16:36:32.167Z,50.30
2017-09-07T16:38:59.956Z,50.40
2017-09-07T16:41:28.428Z,51.90
2017-09-07T16:43:56.155Z,51.80
2017-09-07T16:46:23.718Z,52.50
2017-09-07T16:48:51.325Z,52.60
2017-09-07T16:51:19.024Z,53.20
2017-09-07T16:53:46.602Z,53.70
2017-09-07T16:56:14.153Z,54.40
2017-09-07T16:58:41.734Z,54.50
2017-09-07T17:01:09.286Z,54.90
2017-09-07T17:03:36.845Z,54.90
2017-09-07T17:06:04.441Z,55.40
2017-09-07T17:08:32.304Z,55.70
2017-09-07T17:10:59.862Z,55.90
2017-09-07T17:13:27.437Z,55.90
2017-09-07T17:15:55.001Z,55.90
2017-09-07T17:18:22.554Z,55.80
2017-09-07T17:21:17.652Z,56.40
2017-09-07T17:23:45.215Z,56.80
2017-09-07T17:26:13.553Z,57.80
2017-09-07T17:28:41.126Z,57.70
2017-09-07T17:31:08.747Z,58.50
2017-09-07T17:33:36.338Z,59.10
2017-09-07T17:36:03.908Z,59.20
2017-09-07T17:38:31.494Z,59.70
2017-09-07T17:40:59.108Z,60.90
2017-09-07T17:43:26.665Z,62.30
2017-09-07T17:45:54.543Z,62.40
2017-09-07T17:48:22.109Z,62.10
2017-09-07T17:50:49.685Z,62.80
2017-09-07T17:53:17.308Z,63.90
2017-09-07T17:55:44.859Z,65.00
2017-09-07T17:58:12.457Z,64.90
2017-09-07T18:00:40.786Z,66.80
2017-09-07T18:03:08.397Z,66.70
2017-09-07T18:05:36.746Z,69.10
2017-09-07T18:08:04.364Z,69.00
2017-09-07T18:10:31.943Z,70.30
2017-09-07T18:12:59.815Z,71.10
2017-09-07T18:15:27.408Z,70.60
2017-09-07T18:17:55.819Z,72.10
2017-09-07T18:20:23.439Z,72.10
2017-09-07T18:22:50.997Z,73.00
2017-09-07T18:25:18.565Z,74.10
2017-09-07T18:27:46.955Z,74.70
2017-09-07T18:30:15.332Z,74.70
2017-09-07T18:32:42.906Z,74.60
2017-09-07T18:35:10.778Z,76.00
2017-09-07T18:37:38.386Z,76.50
2017-09-07T18:40:05.968Z,77.10
2017-09-07T18:42:33.608Z,78.10
2017-09-07T18:45:02.074Z,78.50
2017-09-07T18:47:29.713Z,78.40
2017-09-07T18:49:57.283Z,79.90
2017-09-07T18:52:24.914Z,79.80
2017-09-07T18:54:52.732Z,79.80
2017-09-07T18:57:20.362Z,81.20
2017-09-07T18:59:48.013Z,81.80
2017-09-07T19:02:15.932Z,81.60
2017-09-07T19:04:43.535Z,81.90
2017-09-07T19:07:11.228Z,82.30
2017-09-07T19:09:38.819Z,82.90
2017-09-07T19:12:07.183Z,84.30
2017-09-07T19:14:35.010Z,84.20
2017-09-07T19:17:02.657Z,84.70
2017-09-07T19:19:30.568Z,85.10
2017-09-07T19:21:58.146Z,85.70
2017-09-07T19:24:26.486Z,86.70
2017-09-07T19:26:54.077Z,86.70
2017-09-07T19:29:23.964Z,86.70
2017-09-07T19:31:51.578Z,86.60
2017-09-07T19:34:19.161Z,86.90
2017-09-07T19:36:46.772Z,87.10
2017-09-07T19:39:15.147Z,87.50
2017-09-07T19:41:43.501Z,87.40
2017-09-07T19:44:11.087Z,87.40
2017-09-07T19:46:39.742Z,87.30
2017-09-07T19:49:07.316Z,87.30
2017-09-07T19:51:34.931Z,87.60
2017-09-07T19:54:02.531Z,88.10
2017-09-07T19:56:30.103Z,87.80
2017-09-07T19:58:57.696Z,88.30
2017-09-07T20:01:25.304Z,89.90
2017-09-07T20:03:52.954Z,89.10
2017-09-07T20:06:20.521Z,88.50
2017-09-07T20:08:48.416Z,88.50
2017-09-07T20:11:16.756Z,89.90
2017-09-07T20:13:44.353Z,90.20
2017-09-07T20:16:12.732Z,89.10
2017-09-07T20:18:41.066Z,89.90
2017-09-07T20:21:08.699Z,90.20
2017-09-07T20:23:36.295Z,89.50
2017-09-07T20:26:03.939Z,89.30
2017-09-07T20:28:31.511Z,89.60
2017-09-07T20:30:59.103Z,89.60
2017-09-07T20:33:27.486Z,89.80
2017-09-07T20:35:55.102Z,89.60
2017-09-07T20:38:23.459Z,89.50
2017-09-07T20:40:51.518Z,89.40
2017-09-07T20:43:19.093Z,90.10
2017-09-07T20:45:46.686Z,90.10
2017-09-07T20:48:15.170Z,90.20
2017-09-07T20:50:42.746Z,90.30
2017-09-07T20:53:10.335Z,90.80
2017-09-07T20:55:37.903Z,90.90
2017-09-07T20:58:05.512Z,91.10
2017-09-07T21:00:33.110Z,91.40
2017-09-07T21:03:00.713Z,91.80
2017-09-07T21:05:28.301Z,92.10
2017-09-07T21:07:56.181Z,92.50
2017-09-07T21:10:23.739Z,92.90
2017-09-07T21:12:52.324Z,93.10
2017-09-07T21:15:19.915Z,93.30
2017-09-07T21:17:48.263Z,94.00
2017-09-07T21:20:15.828Z,93.60
2017-09-07T21:22:43.406Z,93.70
2017-09-07T21:25:10.978Z,93.70
2017-09-07T21:27:39.307Z,93.90
2017-09-07T21:30:07.181Z,93.90
2017-09-07T21:32:34.746Z,94.00
2017-09-07T21:35:02.359Z,94.20
2017-09-07T21:37:30.197Z,94.30
2017-09-07T21:39:57.793Z,94.60
2017-09-07T21:42:25.366Z,94.70
2017-09-07T21:44:53.271Z,94.90
2017-09-07T21:47:20.838Z,95.10
2017-09-07T21:49:48.410Z,95.20
2017-09-07T21:52:16.755Z,95.40
2017-09-07T21:54:44.315Z,95.40
2017-09-07T21:57:12.167Z,95.20
2017-09-07T21:59:39.734Z,94.90
2017-09-07T22:02:07.315Z,95.00
2017-09-07T22:04:34.946Z,95.00
2017-09-07T22:07:02.516Z,95.00
2017-09-07T22:09:30.843Z,95.30
2017-09-07T22:11:59.180Z,95.20
2017-09-07T22:14:26.772Z,95.20
2017-09-07T22:16:55.099Z,95.30
2017-09-07T22:19:22.943Z,95.40
2017-09-07T22:21:50.510Z,95.50
2017-09-07T22:24:18.074Z,95.70
2017-09-07T22:26:45.638Z,95.80
2017-09-07T22:29:13.213Z,96.10
2017-09-07T22:31:40.785Z,96.20
2017-09-07T22:34:08.350Z,96.20
2017-09-07T22:36:35.921Z,96.30
2017-09-07T22:39:03.481Z,96.40
2017-09-07T22:41:31.813Z,96.70
2017-09-07T22:43:59.372Z,96.70
2017-09-07T22:46:27.262Z,97.00
2017-09-07T22:48:54.839Z,97.10
2017-09-07T22:51:23.172Z,97.30
2017-09-07T22:53:50.749Z,97.30
2017-09-07T22:56:18.326Z,97.30
2017-09-07T22:58:46.670Z,97.40
2017-09-07T23:01:14.230Z,97.20
2017-09-07T23:03:41.806Z,97.10
2017-09-07T23:06:09.540Z,97.30
2017-09-07T23:08:37.395Z,97.30
2017-09-07T23:11:04.958Z,97.30
2017-09-07T23:13:32.534Z,97.10
2017-09-07T23:16:00.100Z,97.20
2017-09-07T23:18:27.769Z,97.20
2017-09-07T23:20:55.345Z,97.40
2017-09-07T23:23:23.246Z,97.60
2017-09-07T23:25:51.578Z,97.90
2017-09-07T23:28:19.142Z,98.20
2017-09-07T23:30:47.087Z,97.90
2017-09-07T23:33:14.648Z,98.10
2017-09-07T23:35:42.961Z,98.00
2017-09-07T23:38:10.528Z,98.00
2017-09-07T23:40:38.843Z,98.10
2017-09-07T23:43:06.419Z,98.10
2017-09-07T23:45:33.995Z,98.10
2017-09-07T23:48:01.597Z,98.10
2017-09-07T23:50:29.190Z,98.20
2017-09-07T23:52:56.784Z,98.50
2017-09-07T23:55:24.369Z,98.60
2017-09-07T23:57:52.286Z,98.70
